Time;durP1;ratioP1;P1;durP2;ratioP2;P2;SDS_P1;SDS_P2;PMS_P1;PMS_P2;Temp;Humidity;BMP_temperature;BMP_pressure;BME280_temperature;BME280_humidity;BME280_pressure;Samples;Min_cycle;Max_cycle;Signal;HPM_P1;HPM_P2
2021/03/12 00:00:20;;;;;;;26.03;16.93;;;;;;;6.33;69.68;98689.63;4877585;28;101214;-73
2021/03/12 00:02:45;;;;;;;25.40;16.20;;;;;;;6.32;69.82;98704.44;4877697;28;99857;-73
2021/03/12 00:05:12;;;;;;;19.60;14.60;;;;;;;6.34;69.76;98712.16;4894019;28;98450;-73
2021/03/12 00:07:38;;;;;;;19.63;13.93;;;;;;;6.30;69.86;98706.25;4877473;28;97613;-73
2021/03/12 00:10:17;;;;;;;20.73;14.77;;;;;;;6.30;69.86;98702.81;4861293;28;101168;-73
2021/03/12 00:12:43;;;;;;;20.23;14.37;;;;;;;6.23;69.67;98714.41;4877176;28;98188;-73
2021/03/12 00:15:11;;;;;;;20.30;14.60;;;;;;;6.24;69.99;98711.72;4893026;28;96580;-73
2021/03/12 00:17:37;;;;;;;20.43;14.93;;;;;;;6.23;69.97;98714.41;4845431;28;97216;-73
2021/03/12 00:20:15;;;;;;;20.20;13.83;;;;;;;6.25;69.89;98710.81;4893412;28;98131;-73
2021/03/12 00:22:40;;;;;;;18.63;13.83;;;;;;;6.32;69.82;98704.44;4861179;28;97975;-73
2021/03/12 00:25:13;;;;;;;23.97;14.13;;;;;;;6.33;69.99;98705.28;4877506;28;96589;-73
2021/03/12 00:27:39;;;;;;;19.60;13.93;;;;;;;6.43;69.69;98713.53;4861372;28;97307;-72
2021/03/12 00:30:06;;;;;;;21.23;13.73;;;;;;;6.49;69.67;98728.94;4877429;28;97119;-73
2021/03/12 00:32:32;;;;;;;18.80;13.23;;;;;;;6.58;69.59;98725.94;4860850;28;97536;-73
2021/03/12 00:34:58;;;;;;;17.83;13.23;;;;;;;6.62;69.93;98730.09;4861461;28;97022;-73
2021/03/12 00:37:23;;;;;;;16.30;12.57;;;;;;;6.60;69.79;98721.50;4892673;28;97074;-77
2021/03/12 00:39:49;;;;;;;21.07;13.03;;;;;;;6.64;69.84;98730.88;4892854;28;100653;-73
2021/03/12 00:42:15;;;;;;;16.60;12.07;;;;;;;6.67;69.12;98727.31;4861931;28;98385;-73
2021/03/12 00:44:41;;;;;;;16.13;12.17;;;;;;;6.67;69.52;98729.91;4860511;28;96650;-73
2021/03/12 00:47:07;;;;;;;17.50;12.60;;;;;;;6.78;69.12;98731.13;4845586;28;96819;-73
2021/03/12 00:49:33;;;;;;;18.67;12.53;;;;;;;6.75;69.13;98733.03;4860275;28;100648;-73
2021/03/12 00:52:01;;;;;;;16.13;12.43;;;;;;;6.77;69.07;98741.63;4861492;28;102024;-73
2021/03/12 00:54:29;;;;;;;16.97;12.20;;;;;;;6.87;68.74;98732.50;4860966;28;96539;-73
2021/03/12 00:57:07;;;;;;;17.77;12.23;;;;;;;6.88;68.77;98736.78;4848891;28;96843;-73
2021/03/12 00:59:32;;;;;;;18.63;13.27;;;;;;;6.93;68.11;98736.59;4859713;28;101703;-73
2021/03/12 01:01:58;;;;;;;15.83;11.93;;;;;;;6.96;68.18;98721.66;4860920;28;99934;-73
2021/03/12 01:04:24;;;;;;;16.03;11.40;;;;;;;7.07;68.06;98731.63;4876659;28;96485;-77
2021/03/12 01:06:58;;;;;;;17.97;12.03;;;;;;;7.14;67.57;98727.81;4862385;28;97248;-73
2021/03/12 01:09:24;;;;;;;16.37;11.80;;;;;;;7.16;67.09;98712.09;4845039;28;101670;-78
2021/03/12 01:11:49;;;;;;;16.83;11.90;;;;;;;7.29;67.22;98728.84;4860452;28;101552;-73
2021/03/12 01:14:15;;;;;;;19.83;11.77;;;;;;;7.26;67.32;98726.41;4861437;28;97022;-73
2021/03/12 01:16:46;;;;;;;21.90;12.43;;;;;;;7.37;66.97;98720.69;4861156;28;97403;-73
2021/03/12 01:19:11;;;;;;;17.50;11.07;;;;;;;7.40;66.43;98715.31;4908550;28;97325;-73
2021/03/12 01:21:37;;;;;;;19.03;12.20;;;;;;;7.38;66.60;98712.78;4875603;28;100924;-73
2021/03/12 01:24:06;;;;;;;17.33;12.17;;;;;;;7.45;66.23;98718.56;4876176;28;96764;-73
2021/03/12 01:26:39;;;;;;;19.87;12.90;;;;;;;7.31;66.19;98716.59;4860886;28;96875;-73
2021/03/12 01:29:16;;;;;;;18.13;12.13;;;;;;;7.34;66.26;98703.41;4861899;28;98724;-73
2021/03/12 01:31:52;;;;;;;17.67;12.23;;;;;;;7.37;66.06;98711.09;4876304;28;98133;-73
2021/03/12 01:34:20;;;;;;;25.67;12.73;;;;;;;7.29;66.61;98705.38;4861241;28;97112;-73
2021/03/12 01:36:46;;;;;;;15.00;10.63;;;;;;;7.25;66.88;98712.50;4891259;28;96936;-73
2021/03/12 01:39:12;;;;;;;16.57;11.50;;;;;;;7.34;66.53;98702.56;4876118;28;100805;-73
2021/03/12 01:41:41;;;;;;;19.48;11.73;;;;;;;7.31;67.00;98721.81;4876133;28;100895;-73
2021/03/12 01:44:13;;;;;;;15.30;12.03;;;;;;;7.26;66.75;98721.16;4876570;28;96630;-73
2021/03/12 01:46:42;;;;;;;19.23;12.20;;;;;;;7.29;67.46;98712.34;4860103;28;97202;-73
2021/03/12 01:49:08;;;;;;;17.20;11.77;;;;;;;7.37;66.76;98723.31;4891467;28;101228;-73
2021/03/12 01:51:33;;;;;;;15.97;11.47;;;;;;;7.41;67.21;98715.25;4891313;28;98052;-73
2021/03/12 01:54:00;;;;;;;15.00;11.33;;;;;;;7.47;66.71;98716.72;4876111;28;96984;-73
2021/03/12 01:56:26;;;;;;;15.38;11.02;;;;;;;7.44;67.15;98709.03;4890977;28;97382;-72
2021/03/12 01:58:59;;;;;;;15.77;11.93;;;;;;;7.45;67.04;98711.59;4861112;28;100552;-73
2021/03/12 02:01:40;;;;;;;18.67;11.57;;;;;;;7.55;66.82;98708.53;4875123;28;100748;-73
2021/03/12 02:04:14;;;;;;;17.77;12.30;;;;;;;7.56;67.09;98708.44;4861433;28;96727;-73
2021/03/12 02:06:59;;;;;;;17.20;11.97;;;;;;;7.57;66.94;98712.78;4862959;28;96832;-72
2021/03/12 02:09:24;;;;;;;18.60;12.27;;;;;;;7.51;66.99;98707.00;4875786;28;101232;-73
2021/03/12 02:12:16;;;;;;;15.80;11.90;;;;;;;7.53;67.31;98697.31;4843807;28;101439;-72
2021/03/12 02:14:45;;;;;;;18.30;12.23;;;;;;;7.56;67.15;98703.22;4848159;28;97532;-73
2021/03/12 02:17:19;;;;;;;17.93;12.20;;;;;;;7.61;67.30;98701.25;4891839;28;96993;-73
2021/03/12 02:20:22;;;;;;;15.43;11.93;;;;;;;7.56;67.28;98705.84;4891182;28;101577;-73
2021/03/12 02:22:51;;;;;;;15.63;12.10;;;;;;;7.49;67.51;98705.28;4820489;29;98009;-72
2021/03/12 02:25:18;;;;;;;17.93;12.73;;;;;;;7.53;67.34;98710.38;4852800;28;96813;-73
2021/03/12 02:27:52;;;;;;;17.53;12.60;;;;;;;7.53;67.41;98699.91;4845581;28;97063;-73
2021/03/12 02:30:19;;;;;;;15.67;12.83;;;;;;;7.59;67.67;98707.47;4859620;28;101592;-73
2021/03/12 02:32:49;;;;;;;16.52;12.13;;;;;;;7.63;67.07;98695.97;4859522;28;101267;-73
2021/03/12 02:35:21;;;;;;;15.57;11.23;;;;;;;7.63;67.20;98693.34;4861533;28;96875;-72
2021/03/12 02:37:52;;;;;;;16.77;12.90;;;;;;;7.59;67.51;98697.88;4844543;28;97431;-73
2021/03/12 02:40:20;;;;;;;15.25;11.88;;;;;;;7.57;67.44;98691.88;4890449;28;100535;-73
2021/03/12 02:42:54;;;;;;;13.77;12.00;;;;;;;7.58;67.63;98693.56;4860245;28;101130;-73
2021/03/12 02:45:21;;;;;;;18.30;12.50;;;;;;;7.64;67.36;98708.94;4875463;28;96670;-73
2021/03/12 02:47:58;;;;;;;15.40;11.80;;;;;;;7.61;67.58;98722.13;4875137;28;96862;-73
2021/03/12 02:50:29;;;;;;;15.73;12.13;;;;;;;7.59;67.90;98724.00;4890366;28;101262;-72
2021/03/12 02:52:59;;;;;;;13.82;11.30;;;;;;;7.61;67.71;98718.69;4859498;28;101733;-73
2021/03/12 02:55:27;;;;;;;14.43;11.18;;;;;;;7.61;67.46;98729.13;4891717;28;96884;-73
2021/03/12 02:57:57;;;;;;;14.70;12.15;;;;;;;7.57;67.65;98759.78;4860012;28;96751;-73
2021/03/12 03:00:24;;;;;;;14.85;12.43;;;;;;;7.58;67.62;98787.56;4890980;28;101411;-73
2021/03/12 03:03:10;;;;;;;17.77;13.13;;;;;;;7.62;67.38;98785.66;4859475;28;97183;-73
2021/03/12 03:06:05;;;;;;;20.65;13.98;;;;;;;7.61;67.04;98791.81;4873906;28;96911;-73
2021/03/12 03:08:32;;;;;;;17.90;13.15;;;;;;;7.66;67.06;98813.34;4876771;28;97017;-73
2021/03/12 03:11:00;;;;;;;18.08;14.43;;;;;;;7.58;66.66;98828.50;4893596;28;100327;-73
2021/03/12 03:13:32;;;;;;;18.65;13.35;;;;;;;7.61;67.09;98842.28;4862578;28;101175;-73
2021/03/12 03:15:59;;;;;;;17.73;13.07;;;;;;;7.65;66.59;98837.75;4861693;28;96897;-73
2021/03/12 03:18:25;;;;;;;15.02;11.70;;;;;;;7.59;66.60;98832.81;4910060;28;96918;-73
2021/03/12 03:20:51;;;;;;;15.17;10.40;;;;;;;7.59;66.56;98831.06;4861615;28;101299;-73
2021/03/12 03:23:19;;;;;;;13.40;9.02;;;;;;;7.57;66.31;98838.13;4894670;28;101865;-73
2021/03/12 03:25:46;;;;;;;15.18;8.60;;;;;;;7.48;66.43;98830.69;4877629;28;97071;-73
2021/03/12 03:28:20;;;;;;;10.25;6.72;;;;;;;7.46;66.28;98832.53;4893339;28;96695;-72
2021/03/12 03:30:46;;;;;;;8.85;6.07;;;;;;;7.47;66.60;98844.66;4860983;28;101367;-73
2021/03/12 03:33:14;;;;;;;9.50;5.88;;;;;;;7.39;66.51;98850.22;4893478;28;101919;-73
2021/03/12 03:35:40;;;;;;;11.97;5.50;;;;;;;7.37;66.21;98848.59;4893325;28;96565;-73
2021/03/12 03:38:06;;;;;;;11.27;5.28;;;;;;;7.33;66.20;98853.13;4862417;28;96817;-73
2021/03/12 03:40:31;;;;;;;9.25;5.28;;;;;;;7.30;66.40;98855.88;4862197;28;101099;-73
2021/03/12 03:42:59;;;;;;;8.30;4.67;;;;;;;7.32;67.29;98858.41;4861426;28;101580;-73
2021/03/12 03:45:27;;;;;;;9.93;4.78;;;;;;;7.24;68.23;98848.28;4893937;28;96643;-73
2021/03/12 03:48:00;;;;;;;10.10;4.13;;;;;;;7.21;68.16;98870.16;4879448;28;97027;-72
2021/03/12 03:50:27;;;;;;;9.23;4.70;;;;;;;7.19;68.29;98869.38;4893602;28;101431;-72
2021/03/12 03:52:54;;;;;;;10.00;5.37;;;;;;;7.22;68.01;98869.25;4892790;28;100948;-73
2021/03/12 03:55:23;;;;;;;8.88;4.03;;;;;;;7.16;68.36;98873.88;4893326;28;96661;-73
2021/03/12 03:57:50;;;;;;;7.13;3.03;;;;;;;7.11;67.75;98881.06;4893014;28;96853;-73
2021/03/12 04:00:16;;;;;;;8.70;2.97;;;;;;;7.05;68.03;98881.31;4893394;28;101439;-73
2021/03/12 04:02:43;;;;;;;5.82;2.70;;;;;;;7.02;68.36;98890.13;4893157;28;97771;-73
2021/03/12 04:05:13;;;;;;;6.70;2.73;;;;;;;7.06;67.89;98883.00;4862614;28;97285;-73
2021/03/12 04:07:46;;;;;;;6.83;2.70;;;;;;;7.02;68.10;98882.28;4846890;28;97304;-73
2021/03/12 04:10:12;;;;;;;5.53;2.17;;;;;;;7.06;67.51;98872.56;4877535;28;101506;-73
2021/03/12 04:12:39;;;;;;;7.33;2.43;;;;;;;7.00;67.71;98871.91;4893536;28;101032;-77
2021/03/12 04:15:09;;;;;;;6.88;2.60;;;;;;;7.03;67.26;98877.00;4892912;28;96560;-73
2021/03/12 04:17:36;;;;;;;7.10;2.93;;;;;;;6.95;67.87;98875.63;4893589;28;96890;-72
2021/03/12 04:20:03;;;;;;;11.70;2.50;;;;;;;6.89;67.86;98875.88;4890856;28;101371;-73
2021/03/12 04:22:30;;;;;;;7.20;2.00;;;;;;;6.90;67.65;98886.28;4893193;28;101121;-73
2021/03/12 04:24:57;;;;;;;6.43;2.37;;;;;;;6.96;67.86;98893.84;4892694;28;96835;-73
2021/03/12 04:27:24;;;;;;;8.73;2.78;;;;;;;6.94;67.87;98894.81;4909416;28;96890;-73
2021/03/12 04:29:50;;;;;;;4.60;2.17;;;;;;;6.92;67.60;98894.00;4892212;28;101705;-73
2021/03/12 04:32:16;;;;;;;5.93;2.55;;;;;;;6.87;68.11;98894.22;4892933;28;100222;-73
2021/03/12 04:34:43;;;;;;;8.00;2.33;;;;;;;6.92;68.06;98894.88;4861245;28;96684;-78
2021/03/12 04:37:09;;;;;;;4.70;1.90;;;;;;;6.86;68.48;98902.94;4909899;28;96634;-73
2021/03/12 04:39:36;;;;;;;7.87;2.67;;;;;;;6.80;68.59;98901.44;4845569;28;101539;-73
2021/03/12 04:42:03;;;;;;;5.17;2.20;;;;;;;6.82;68.29;98906.59;4908763;28;98091;-73
2021/03/12 04:44:29;;;;;;;5.90;2.57;;;;;;;6.80;68.44;98903.19;4893132;28;96584;-73
2021/03/12 04:46:55;;;;;;;6.43;2.03;;;;;;;6.78;68.46;98913.72;4891874;28;97526;-73
2021/03/12 04:49:22;;;;;;;3.73;1.90;;;;;;;6.73;68.63;98927.84;4892830;28;98183;-73
2021/03/12 04:51:49;;;;;;;7.50;1.83;;;;;;;6.74;68.56;98927.75;4860152;28;99609;-73
2021/03/12 04:54:17;;;;;;;3.80;1.30;;;;;;;6.77;68.04;98930.25;4845821;28;97116;-73
2021/03/12 04:56:44;;;;;;;4.37;1.63;;;;;;;6.71;68.33;98929.66;4891332;28;97217;-74
2021/03/12 04:59:11;;;;;;;5.23;2.10;;;;;;;6.71;68.52;98930.50;4892462;28;101386;-72
2021/03/12 05:01:42;;;;;;;4.13;1.77;;;;;;;6.67;68.31;98935.91;4892775;28;99093;-73
2021/03/12 05:04:09;;;;;;;4.63;1.60;;;;;;;6.64;68.09;98938.66;4892283;28;96982;-73
2021/03/12 05:06:41;;;;;;;3.10;1.33;;;;;;;6.65;67.98;98920.31;4892702;28;96757;-73
2021/03/12 05:09:19;;;;;;;2.80;1.23;;;;;;;6.68;67.85;98937.59;4890278;28;99873;-72
2021/03/12 05:11:46;;;;;;;3.33;1.40;;;;;;;6.58;68.05;98943.19;4891882;28;98474;-77
2021/03/12 05:14:21;;;;;;;3.63;1.47;;;;;;;6.56;68.29;98945.00;4862410;28;97226;-73
2021/03/12 05:16:47;;;;;;;3.70;1.80;;;;;;;6.55;68.05;98937.25;4891636;28;96760;-75
2021/03/12 05:19:14;;;;;;;4.07;1.33;;;;;;;6.57;67.46;98940.63;4877837;28;98187;-72
2021/03/12 05:21:42;;;;;;;6.63;1.50;;;;;;;6.64;67.20;98926.47;4891991;28;100510;-73
2021/03/12 05:24:13;;;;;;;5.82;1.17;;;;;;;6.63;67.52;98929.09;4891849;28;97231;-73
2021/03/12 05:26:39;;;;;;;2.77;1.50;;;;;;;6.67;67.50;98930.69;4878763;28;97031;-73
2021/03/12 05:29:09;;;;;;;5.57;1.60;;;;;;;6.67;67.31;98943.75;4859744;28;101362;-73
2021/03/12 05:31:35;;;;;;;3.57;1.90;;;;;;;6.68;67.21;98950.66;4859415;28;101464;-72
2021/03/12 05:34:00;;;;;;;4.47;1.40;;;;;;;6.62;67.58;98940.47;4875203;28;97104;-72
2021/03/12 05:36:28;;;;;;;3.13;1.10;;;;;;;6.56;67.27;98944.16;4860699;28;96939;-72
2021/03/12 05:38:54;;;;;;;3.80;1.30;;;;;;;6.63;67.50;98939.53;4859722;28;100782;-73
2021/03/12 05:41:21;;;;;;;4.23;1.20;;;;;;;6.54;67.87;98941.63;4860486;28;101384;-73
2021/03/12 05:43:47;;;;;;;5.43;1.57;;;;;;;6.55;67.85;98939.88;4860027;28;96649;-77
2021/03/12 05:46:15;;;;;;;5.40;2.73;;;;;;;6.52;68.02;98929.56;4876287;28;96952;-73
2021/03/12 05:48:44;;;;;;;6.00;2.60;;;;;;;6.63;67.84;98931.72;4859754;28;101293;-72
2021/03/12 05:51:13;;;;;;;6.10;2.33;;;;;;;6.62;67.64;98937.84;4876694;28;99083;-73
2021/03/12 05:53:39;;;;;;;5.93;2.50;;;;;;;6.64;67.55;98936.03;4877229;28;96646;-72
2021/03/12 05:56:11;;;;;;;3.73;1.70;;;;;;;6.65;67.91;98940.34;4860967;28;96600;-72
2021/03/12 05:58:52;;;;;;;3.27;1.50;;;;;;;6.66;67.51;98942.03;4860841;28;99510;-72
2021/03/12 06:01:17;;;;;;;4.63;1.87;;;;;;;6.67;67.20;98949.81;4859615;28;100954;-72
2021/03/12 06:03:44;;;;;;;4.90;2.10;;;;;;;6.70;67.32;98951.44;4860941;28;96994;-72
2021/03/12 06:06:10;;;;;;;7.03;2.33;;;;;;;6.73;67.36;98956.53;4860219;28;96965;-73
2021/03/12 06:08:38;;;;;;;16.13;5.93;;;;;;;6.76;66.91;98959.88;4860182;28;100882;-72
2021/03/12 06:11:04;;;;;;;16.73;6.47;;;;;;;6.83;66.71;98959.63;4859065;28;101805;-73
2021/03/12 06:13:53;;;;;;;19.90;7.20;;;;;;;6.75;66.77;98970.38;4860713;28;96532;-72
2021/03/12 06:16:31;;;;;;;20.40;6.77;;;;;;;6.75;66.73;98981.66;4861813;28;96858;-72
2021/03/12 06:19:15;;;;;;;18.47;6.73;;;;;;;6.68;67.28;98993.22;4859627;28;100320;-73
2021/03/12 06:21:44;;;;;;;21.00;6.10;;;;;;;6.70;67.43;99001.84;4860184;28;101105;-72
2021/03/12 06:24:46;;;;;;;19.90;6.23;;;;;;;6.72;67.03;99015.69;4860254;28;96633;-73
2021/03/12 06:27:30;;;;;;;10.57;4.00;;;;;;;6.66;67.96;99026.34;4857391;28;97071;-72
2021/03/12 06:30:23;;;;;;;6.75;3.05;;;;;;;6.67;68.49;99043.69;4871837;28;97838;-73
2021/03/12 06:33:25;;;;;;;5.87;2.23;;;;;;;6.63;69.05;99059.50;4875200;28;98664;-73
2021/03/12 06:36:28;;;;;;;6.95;2.72;;;;;;;6.58;69.49;99062.28;4874719;28;96914;-73
2021/03/12 06:39:03;;;;;;;5.20;2.27;;;;;;;6.58;69.81;99067.50;4845834;28;96805;-72
2021/03/12 06:41:51;;;;;;;5.03;2.53;;;;;;;6.58;70.32;99080.53;4874307;28;98025;-75
2021/03/12 06:44:34;;;;;;;5.90;2.63;;;;;;;6.61;69.67;99076.97;4859870;28;100135;-73
2021/03/12 06:47:06;;;;;;;5.57;2.43;;;;;;;6.62;70.06;99094.31;4856670;28;97217;-73
2021/03/12 06:49:55;;;;;;;5.00;2.50;;;;;;;6.57;70.43;99091.84;4842715;28;96904;-72
2021/03/12 06:52:35;;;;;;;5.17;2.60;;;;;;;6.55;70.18;99097.16;4832449;29;98781;-72
2021/03/12 06:55:07;;;;;;;4.27;1.90;;;;;;;6.55;70.49;99104.97;4841393;29;99653;-73
2021/03/12 06:57:41;;;;;;;6.83;2.00;;;;;;;6.50;70.17;99112.09;4849574;28;97377;-74
2021/03/12 07:00:16;;;;;;;6.03;2.43;;;;;;;6.43;70.98;99118.47;4866459;28;96820;-73
2021/03/12 07:02:46;;;;;;;6.65;1.95;;;;;;;6.40;71.24;99122.91;4862797;28;101716;-75
2021/03/12 07:05:21;;;;;;;4.73;2.33;;;;;;;6.37;71.39;99136.94;4866987;28;98347;-74
2021/03/12 07:08:00;;;;;;;2.97;1.60;;;;;;;6.29;71.43;99133.75;4858557;28;97260;-75
2021/03/12 07:10:38;;;;;;;3.50;2.00;;;;;;;6.38;71.35;99143.84;4874863;28;96801;-74
2021/03/12 07:13:21;;;;;;;6.40;2.40;;;;;;;6.30;71.39;99144.09;4860276;28;101273;-76
2021/03/12 07:15:55;;;;;;;3.90;2.07;;;;;;;6.31;71.42;99145.81;4859279;28;99085;-77
2021/03/12 07:18:48;;;;;;;3.93;1.73;;;;;;;6.24;71.18;99159.09;4861437;28;97006;-83
2021/03/12 07:21:20;;;;;;;5.23;2.20;;;;;;;6.25;70.96;99169.47;4859935;28;96796;-75
2021/03/12 07:23:50;;;;;;;4.17;1.80;;;;;;;6.21;71.31;99187.88;4859476;28;100760;-75
2021/03/12 07:26:22;;;;;;;6.03;1.70;;;;;;;6.15;71.67;99198.50;4859207;28;101490;-76
2021/03/12 07:29:00;;;;;;;5.03;2.20;;;;;;;6.10;71.88;99209.91;4859603;28;96734;-77
2021/03/12 07:31:46;;;;;;;6.37;2.30;;;;;;;6.00;71.58;99231.13;4861637;28;96853;-76
2021/03/12 07:34:24;;;;;;;3.37;1.83;;;;;;;5.90;70.81;99209.69;4843913;28;101267;-76
2021/03/12 07:36:56;;;;;;;4.73;1.70;;;;;;;5.74;70.56;99214.56;4859257;28;98639;-77
2021/03/12 07:39:23;;;;;;;3.47;1.90;;;;;;;5.71;71.33;99214.66;4859157;28;96543;-76
2021/03/12 07:41:52;;;;;;;3.40;1.97;;;;;;;5.77;71.81;99219.66;4874841;28;96971;-76
2021/03/12 07:44:37;;;;;;;4.27;2.37;;;;;;;5.80;71.79;99218.72;4874697;28;97104;-76
2021/03/12 07:47:27;;;;;;;3.93;2.07;;;;;;;5.94;71.84;99224.38;4861092;28;99302;-76
2021/03/12 07:49:53;;;;;;;4.67;2.03;;;;;;;6.03;71.74;99224.06;4875096;28;97367;-76
2021/03/12 07:52:51;;;;;;;7.90;2.07;;;;;;;6.21;71.60;99225.22;4859993;28;96744;-76
2021/03/12 07:55:45;;;;;;;7.13;2.07;;;;;;;6.34;70.83;99234.31;4851258;28;98639;-75
2021/03/12 07:58:55;;;;;;;3.25;2.00;;;;;;;6.43;71.20;99240.09;4864165;28;98517;-76
2021/03/12 08:01:48;;;;;;;5.30;2.07;;;;;;;6.64;70.62;99249.81;4871775;28;97505;-75
2021/03/12 08:04:35;;;;;;;4.13;2.10;;;;;;;6.69;71.05;99250.50;4861347;28;97433;-76
2021/03/12 08:07:20;;;;;;;5.60;2.10;;;;;;;6.69;70.44;99260.94;4877570;28;98517;-76
2021/03/12 08:09:51;;;;;;;3.60;2.17;;;;;;;6.70;70.54;99262.63;4861520;28;100495;-75
2021/03/12 08:12:39;;;;;;;5.50;2.20;;;;;;;6.75;70.17;99265.94;4864208;28;96688;-75
2021/03/12 08:15:20;;;;;;;4.85;2.28;;;;;;;6.78;70.35;99272.81;4846323;28;97283;-83
2021/03/12 08:17:58;;;;;;;7.97;3.23;;;;;;;6.78;70.16;99265.00;4877697;28;98503;-75
2021/03/12 08:20:41;;;;;;;4.70;2.50;;;;;;;6.95;70.09;99273.06;4849874;29;100215;-79
2021/03/12 08:23:34;;;;;;;5.82;2.38;;;;;;;7.06;69.38;99263.97;4850409;28;97008;-79
2021/03/12 08:26:04;;;;;;;4.73;1.93;;;;;;;7.25;69.18;99283.28;4846100;28;96802;-76
2021/03/12 08:28:50;;;;;;;5.07;2.23;;;;;;;7.46;68.23;99279.03;4863303;28;98048;-79
2021/03/12 08:31:50;;;;;;;5.22;2.80;;;;;;;8.28;65.77;99287.97;4862707;28;101181;-75
2021/03/12 08:34:41;;;;;;;11.50;5.77;;;;;;;8.25;65.99;99289.88;4861991;28;96933;-76
2021/03/12 08:37:32;;;;;;;6.18;2.65;;;;;;;8.06;65.70;99295.00;4848600;28;97012;-74
2021/03/12 08:40:16;;;;;;;4.30;2.27;;;;;;;7.90;66.11;99299.97;4875029;28;99238;-73
2021/03/12 08:43:10;;;;;;;3.23;2.07;;;;;;;8.05;65.61;99301.97;4868668;28;97714;-73
2021/03/12 08:45:46;;;;;;;5.83;2.60;;;;;;;8.14;65.72;99314.69;4873983;28;96869;-73
2021/03/12 08:48:22;;;;;;;3.92;2.80;;;;;;;8.11;65.82;99313.94;4847201;28;96777;-74
2021/03/12 08:51:02;;;;;;;4.93;2.78;;;;;;;8.08;65.96;99327.13;4871086;28;101154;-74
2021/03/12 08:53:35;;;;;;;4.80;2.60;;;;;;;8.17;65.70;99318.91;4838219;28;101500;-74
2021/03/12 08:56:02;;;;;;;;;;;;;;;8.29;66.05;99323.69;4860434;28;96703;-78
2021/03/12 08:58:40;;;;;;;6.27;3.30;;;;;;;8.03;66.40;99329.06;4876995;28;97059;-74
2021/03/12 09:01:25;;;;;;;9.65;3.50;;;;;;;7.86;66.84;99333.22;4860769;28;99296;-74
2021/03/12 09:04:09;;;;;;;8.33;3.67;;;;;;;7.82;67.19;99322.91;4876223;28;97072;-74
2021/03/12 09:06:47;;;;;;;6.60;3.30;;;;;;;7.92;67.24;99340.81;4860262;28;96697;-74
2021/03/12 09:09:26;;;;;;;4.57;2.70;;;;;;;8.05;67.53;99342.94;4873957;28;97128;-73
2021/03/12 09:12:10;;;;;;;6.32;3.20;;;;;;;8.12;67.33;99350.50;4866423;28;98215;-77
2021/03/12 09:14:50;;;;;;;7.93;3.70;;;;;;;8.29;66.66;99343.72;4854086;28;101112;-76
2021/03/12 09:17:19;;;;;;;6.80;3.33;;;;;;;9.21;64.85;99339.91;4842540;28;97304;-75
2021/03/12 09:19:48;;;;;;;4.27;2.83;;;;;;;9.18;64.22;99350.50;4882138;28;96927;-74
2021/03/12 09:22:23;;;;;;;4.68;3.15;;;;;;;8.81;65.18;99349.47;4860298;28;99837;-75
2021/03/12 09:24:54;;;;;;;5.10;3.03;;;;;;;8.65;64.97;99346.66;4860391;28;101969;-74
2021/03/12 09:27:28;;;;;;;4.13;2.55;;;;;;;8.55;64.86;99354.03;4871271;28;96811;-74
2021/03/12 09:30:06;;;;;;;5.75;2.58;;;;;;;8.35;65.90;99356.59;4880363;28;97013;-74
2021/03/12 09:32:39;;;;;;;2.63;2.20;;;;;;;8.05;66.49;99358.63;4866855;28;101198;-74
2021/03/12 09:35:18;;;;;;;3.35;2.25;;;;;;;7.74;67.17;99365.03;4857264;28;99512;-75
2021/03/12 09:37:48;;;;;;;4.35;2.22;;;;;;;7.65;67.88;99370.56;4838146;28;96949;-74
2021/03/12 09:40:32;;;;;;;4.70;2.40;;;;;;;7.57;68.10;99386.56;4846967;28;96836;-74
2021/03/12 09:43:09;;;;;;;4.18;2.40;;;;;;;8.00;67.79;99378.84;4852211;28;101330;-74
2021/03/12 09:45:48;;;;;;;3.50;1.90;;;;;;;9.05;65.47;99385.09;4852510;28;101495;-74
2021/03/12 09:48:43;;;;;;;6.68;2.35;;;;;;;9.69;64.70;99388.44;4886483;28;96809;-74
2021/03/12 09:51:18;;;;;;;4.07;2.03;;;;;;;9.94;63.13;99375.88;4884594;28;96971;-74
2021/03/12 09:53:48;;;;;;;7.70;2.90;;;;;;;10.10;62.63;99377.81;4882800;28;101162;-74
2021/03/12 09:56:23;;;;;;;3.92;2.10;;;;;;;10.40;60.62;99383.38;4878205;28;99619;-75
2021/03/12 09:59:02;;;;;;;9.27;2.90;;;;;;;10.88;59.49;99366.16;4839893;28;98186;-74
2021/03/12 10:02:06;;;;;;;3.92;2.40;;;;;;;10.91;nan;99370.38;4843881;28;97649;-74
2021/03/12 10:05:00;;;;;;;7.13;2.72;;;;;;;11.25;59.17;99370.38;4845461;28;98676;-74
2021/03/12 10:08:02;;;;;;;;;;;;;;;11.24;56.03;99371.31;4859338;28;99400;-79
2021/03/12 10:10:39;;;;;;;3.22;2.20;;;;;;;11.68;56.26;99367.25;4881740;28;96855;-74
2021/03/12 10:13:06;;;;;;;6.90;2.33;;;;;;;11.76;55.21;99371.19;4881929;28;96835;-75
2021/03/12 10:15:40;;;;;;;6.70;2.35;;;;;;;11.87;55.41;99381.16;4844911;28;100388;-74
2021/03/12 10:18:21;;;;;;;6.70;2.17;;;;;;;11.93;53.69;99380.81;4851283;28;98122;-74
2021/03/12 10:20:46;;;;;;;3.10;1.85;;;;;;;11.81;53.33;99380.59;4872902;28;96663;-73
2021/03/12 10:23:14;;;;;;;5.20;2.50;;;;;;;11.67;53.41;99378.72;4853138;28;98433;-74
2021/03/12 10:25:44;;;;;;;3.95;2.17;;;;;;;11.45;52.77;99381.63;4850293;28;98115;-74
2021/03/12 10:28:19;;;;;;;6.03;2.40;;;;;;;11.08;52.53;99376.50;4835743;28;101585;-74
2021/03/12 10:30:55;;;;;;;4.88;1.85;;;;;;;11.11;52.03;99385.97;4847752;28;96882;-74
2021/03/12 10:33:22;;;;;;;3.50;2.42;;;;;;;11.03;52.25;99385.53;4847924;28;97019;-73
2021/03/12 10:35:53;;;;;;;4.00;2.40;;;;;;;10.92;52.38;99391.31;4858626;28;98248;-73
2021/03/12 10:38:24;;;;;;;3.80;1.97;;;;;;;11.02;53.01;99389.06;4874542;28;97647;-74
2021/03/12 10:41:00;;;;;;;4.37;2.00;;;;;;;11.25;51.80;99395.78;4859937;28;96590;-73
2021/03/12 10:43:29;;;;;;;6.03;2.10;;;;;;;11.25;50.88;99391.38;4859294;28;96976;-73
2021/03/12 10:46:02;;;;;;;10.48;5.32;;;;;;;11.04;50.91;99401.22;4859289;28;101499;-73
2021/03/12 10:48:37;;;;;;;18.98;13.57;;;;;;;11.06;51.54;99396.75;4859104;28;97992;-74
2021/03/12 10:51:05;;;;;;;6.38;5.47;;;;;;;11.19;51.66;99399.56;4859108;28;96684;-78
2021/03/12 10:53:50;;;;;;;4.50;2.30;;;;;;;11.07;52.08;99385.28;4824258;29;98553;-74
2021/03/12 10:56:16;;;;;;;8.38;2.40;;;;;;;10.97;51.82;99384.06;4868846;28;98156;-77
2021/03/12 10:58:53;;;;;;;4.40;2.42;;;;;;;10.94;52.04;99393.84;4854442;29;97495;-74
2021/03/12 11:01:40;;;;;;;5.13;2.63;;;;;;;11.25;52.59;99385.28;4857515;28;96568;-73
2021/03/12 11:04:08;;;;;;;6.72;2.42;;;;;;;11.60;52.15;99380.81;4855684;29;97031;-78
2021/03/12 11:06:35;;;;;;;2.63;1.98;;;;;;;11.83;51.43;99381.34;4856121;28;101533;-73
2021/03/12 11:09:10;;;;;;;4.80;1.70;;;;;;;11.69;50.22;99376.84;4857352;28;97949;-78
2021/03/12 11:11:45;;;;;;;3.23;1.73;;;;;;;11.67;49.74;99379.56;4857189;29;96688;-73
2021/03/12 11:14:15;;;;;;;2.60;1.67;;;;;;;11.48;48.84;99377.03;4864819;28;97542;-75
2021/03/12 11:16:48;;;;;;;2.72;1.80;;;;;;;11.20;49.33;99371.53;4840815;28;100383;-74
2021/03/12 11:19:17;;;;;;;5.90;1.95;;;;;;;11.23;49.72;99374.03;4856448;28;97913;-75
2021/03/12 11:21:43;;;;;;;3.03;1.88;;;;;;;11.40;49.51;99360.81;4857327;28;96774;-75
2021/03/12 11:24:09;;;;;;;4.90;1.80;;;;;;;11.68;49.98;99359.38;4872321;28;96956;-76
2021/03/12 11:26:42;;;;;;;4.85;2.22;;;;;;;11.87;49.81;99368.00;4839991;28;100544;-75
2021/03/12 11:29:14;;;;;;;4.07;2.33;;;;;;;11.83;48.64;99365.59;4857130;28;100531;-77
2021/03/12 11:31:45;;;;;;;4.90;1.80;;;;;;;11.63;49.81;99379.78;4891969;28;96838;-75
2021/03/12 11:34:14;;;;;;;4.30;1.77;;;;;;;11.51;48.61;99368.16;4876337;28;97370;-76
2021/03/12 11:37:00;;;;;;;3.95;1.80;;;;;;;11.25;49.27;99380.88;4843962;28;102050;-75
2021/03/12 11:39:28;;;;;;;3.10;1.48;;;;;;;11.07;49.02;99361.66;4862302;28;97531;-76
2021/03/12 11:41:54;;;;;;;7.93;2.30;;;;;;;11.04;49.35;99368.84;4859691;28;97220;-76
2021/03/12 11:44:41;;;;;;;5.03;2.20;;;;;;;10.92;49.84;99366.84;4860221;28;118009;-75
2021/03/12 11:47:16;;;;;;;5.50;2.10;;;;;;;10.85;49.85;99367.16;4859010;28;100303;-78
2021/03/12 11:49:49;;;;;;;3.35;2.08;;;;;;;10.90;49.32;99376.56;4860869;28;100424;-75
2021/03/12 11:52:16;;;;;;;6.50;2.08;;;;;;;10.88;50.47;99369.63;4859342;28;96826;-75
2021/03/12 11:54:50;;;;;;;3.90;2.17;;;;;;;10.92;50.51;99374.72;4873475;28;97489;-75
2021/03/12 11:57:16;;;;;;;3.53;2.28;;;;;;;10.97;49.83;99381.44;4860983;28;100007;-75
2021/03/12 11:59:54;;;;;;;4.53;2.35;;;;;;;10.93;48.92;99365.91;4878218;28;98090;-75
2021/03/12 12:05:14;;;;;;;5.55;2.13;;;;;;;10.69;49.54;99381.97;4878622;28;97304;-75